Pagrindinis puslapis
METAR-TAF:

METAR-TAF

Oro uostai :

Basra, Irakas

platuma: 30-32-56N, ilguma: 47-39-45E, Aukštis: 1 m

Dabartinis oras

Ataskaita buvo paskelbta 26 minutes, ne 09:00 UTC
Vėjas 6 kt iš Šiaurės/Šiaurės Rytų
Temperatūra 38°C
Drėgmė 11%
Slėgis 1007 hPa
Matomumas 10 km arba daugiau
nėra debesų žemiau 1500 m ir nėra kamuolinių lietaus debesų

METAR: ORMM 200900Z 02006KT CAVOK 38/03 Q1007 NOSIG

Laikas: 12:26 (09:26 UTC)

Prognozė

Ataskaita buvo paskelbta 5 valandos ir 26 minutes, ne 04:00 UTC
Prognozė galioja nuo 20 metu 06 UTC su 21 metu 06 UTC
Vėjas 6 kt iš Pietryčių
Matomumas 10 km arba daugiau
nėra debesų žemiau 1500 m ir nėra kamuolinių lietaus debesų
Tapsmas
nuo 20 metu 10 UTC su 20 metu 12 UTC
Vėjas 10 kt iš Šiaurės/Šiaurės Rytų
Tapsmas
nuo 20 metu 16 UTC su 20 metu 18 UTC
Vėjas 10 kt iš Pietų/Pietryčių

TAF: ORMM 200400Z 2006/2106 14006KT CAVOK BECMG 2010/2012 02010KT BECMG 2016/2018 15010KT

Orai ataskaitas ir orų prognozės (METAR, TAF).

turimą stotys yra geltonos ir raudonos taškus žemėlapyje.

Perkelti pele per norėdami pamatyti stoties vardą.

Tada spustelėkite, norėdami matyti oro stebėjimo ir prognozės.

Norėdami pakeisti žemėlapį: spustelėkite ant žalios mygtukų su juodo kryžiaus žemyn,; žalią mygtuką su brūkšneliu, jei norite nutolinti; arba žalių rodyklių gretimoms žemėlapius.


METAR-TAF: